Barry, Texas
Current Conditions -  °F | °C
As of 4:53 PM on Saturday 25 Oct 2014 (Local Time) from KCRS Reporting Station
Clear Clear  
Wind Chill: 86°   Ceiling: Unl
Heat Index: 86°   Visibility: 10mi
Dew Point: 59°   Wind: 6mph
Humidity: 40%   Direction: 210°SSW
Pressure: 30.09"   Gusts: NA
Location:  32.1°N, 96.64°W
Report Text: KCRS 252153Z AUTO 21005KT 10SM CLR 30/15 A3009 RMK AO2 SLP184 T03000150
Loading
Personal Weather Stations






























Interactive Weather Map New forecast layout! Learn more

10-Day Weather Forecast

Advertisements
Track Severe Weather on mobile